• Join FlightAware (Why Join?)
  • Login
  • US Flag 
06:42AM EDT


 

Airport Tracker/Info


-or-


 

Live Flight TrackerFlight Track Log ✈ AAL2007 ✈ 13-Jun-2013 ✈ KORD - KAUS

Flight Track Log - Related Links

Times and Time Zones

All times are in EDT time to prevent confusion due to time zone crossing. See the AAL2007 flight status page for this flight to view local times or setup timezone preferences in your user account.

Time Position Orientation Groundspeed Altitude Reporting Facility
EDT Latitude Longitude Course Direction KTS MPH feet Rate Location/Type
06:47PM 41.9500 -87.8333 194° South 220 253 2,600  Level Chicago TRACON
06:47PM 41.9142 -87.8189 163° South 269 310 3,600 2,100 Climbing Chicago Center
06:48PM 41.8656 -87.8822 224° Southwest 263 303 6,000 2,280 Climbing Chicago Center
06:49PM 41.6010 -88.2869 197° South  Level Estimated
06:49PM 41.7986 -87.9411 213° Southwest 305 351 8,400  Level Chicago Center
06:50PM 41.5057 -88.3812 194° South  Level Estimated
06:50PM 41.7200 -87.9869 204° Southwest 309 356 11,000  Level Chicago Center
06:51PM 41.4102 -88.4753 207° Southwest  Level Estimated
06:51PM 41.6394 -88.0392 206° Southwest 322 371 13,400  Level Chicago Center
06:52PM 41.3196 -88.5643 194° South  Level Estimated
06:52PM 41.5375 -88.0992 204° Southwest 338 389 15,700  Level Chicago Center
06:53PM 41.4511 -88.1525 205° Southwest 353 406 17,600 1,740 Climbing Chicago Center
06:54PM 41.3594 -88.2017 202° Southwest 367 422 19,300 1,440 Climbing Chicago Center
06:56PM 41.1378 -88.3017 199° South 392 451 22,100 1,200 Climbing Chicago Center
06:58PM 41.0264 -88.3522 199° South 422 486 23,100 900 Climbing Chicago Center
06:59PM 40.9078 -88.4050 199° South 449 517 24,000 1,200 Climbing Chicago Center
07:00PM 40.7867 -88.4592 199° South 459 528 25,600 1,380 Climbing Chicago Center
07:01PM 40.6547 -88.5564 209° Southwest 460 529 26,900 960 Climbing Chicago Center
07:02PM 40.5578 -88.6672 221° Southwest 461 531 27,700 960 Climbing Chicago Center
07:03PM 40.4544 -88.7781 219° Southwest 472 543 28,900 1,140 Climbing Chicago Center
07:04PM 40.3519 -88.8917 220° Southwest 479 551 30,100 1,080 Climbing Chicago Center
07:05PM 40.2506 -89.0028 220° Southwest 474 545 31,200 960 Climbing Chicago Center
07:06PM 40.1475 -89.1133 219° Southwest 474 545 32,200 1,080 Climbing Chicago Center
07:07PM 40.0664 -89.2036 220° Southwest 471 542 33,200 780 Climbing Kansas City Center
07:08PM 39.9667 -89.3114 220° Southwest 465 535 33,700 360 Climbing Kansas City Center
07:09PM 39.8461 -89.4406 219° Southwest 466 536 34,000 120 Climbing Kansas City Center
07:10PM 39.7472 -89.5481 220° Southwest 464 534 34,000  Level Kansas City Center
07:11PM 39.6561 -89.6467 220° Southwest 458 527 34,000  Level Kansas City Center
07:12PM 39.5581 -89.7503 219° Southwest 456 525 34,000  Level Kansas City Center
07:13PM 39.4611 -89.8525 219° Southwest 452 520 34,000  Level Kansas City Center
07:14PM 39.3422 -89.9786 219° Southwest 459 528 34,000  Level Kansas City Center
07:15PM 39.2461 -90.0808 219° Southwest 454 522 34,000  Level Kansas City Center
07:16PM 39.1489 -90.1822 219° Southwest 451 519 34,000  Level Kansas City Center
07:17PM 39.0528 -90.2836 219° Southwest 449 517 34,000  Level Kansas City Center
07:18PM 38.9569 -90.3853 220° Southwest 450 518 34,000  Level Kansas City Center
07:19PM 38.8475 -90.4975 219° Southwest 441 507 34,000  Level Kansas City Center
07:20PM 38.7539 -90.6017 221° Southwest 440 506 34,000  Level Kansas City Center
07:21PM 38.6619 -90.7142 224° Southwest 458 527 34,000  Level Kansas City Center
07:22PM 38.5694 -90.8208 222° Southwest 458 527 34,000  Level Kansas City Center
07:23PM 38.4783 -90.9247 222° Southwest 450 518 34,000  Level Kansas City Center
07:24PM 38.3689 -91.0492 222° Southwest 443 510 34,000  Level Kansas City Center
07:25PM 38.2764 -91.1553 222° Southwest 445 512 34,000  Level Kansas City Center
07:26PM 38.1822 -91.2572 220° Southwest 447 514 34,000  Level Kansas City Center
07:27PM 38.0839 -91.3686 222° Southwest 451 519 34,000  Level Kansas City Center
07:28PM 37.9906 -91.4744 222° Southwest 450 518 34,000  Level Kansas City Center
07:29PM 37.8964 -91.5803 222° Southwest 450 518 34,000  Level Kansas City Center
07:30PM 37.8028 -91.6858 222° Southwest 447 514 34,000  Level Kansas City Center
07:31PM 37.7078 -91.7906 221° Southwest 448 516 34,000  Level Kansas City Center
07:32PM 37.5944 -91.9183 222° Southwest 450 518 34,000  Level Kansas City Center
07:33PM 37.4992 -92.0236 221° Southwest 451 519 34,000  Level Kansas City Center
07:34PM 37.4053 -92.1278 221° Southwest 448 516 34,000  Level Kansas City Center
07:36PM 37.3103 -92.2322 221° Southwest 450 518 34,000  Level Kansas City Center
07:37PM 37.2150 -92.3361 221° Southwest 451 519 34,000  Level Kansas City Center
07:38PM 37.1208 -92.4397 221° Southwest 449 517 34,000  Level Kansas City Center
07:39PM 37.0247 -92.5414 220° Southwest 449 517 34,000  Level Kansas City Center
07:40PM 36.9314 -92.6453 222° Southwest 449 517 34,000  Level Kansas City Center
07:41PM 36.8178 -92.7689 221° Southwest 449 517 34,000  Level Kansas City Center
07:42PM 36.7186 -92.8631 217° Southwest 449 517 34,000  Level Kansas City Center
07:43PM 36.6097 -92.9444 211° Southwest 455 524 34,000  Level Kansas City Center
07:44PM 36.5133 -93.0217 213° Southwest 455 524 34,000  Level Kansas City Center
07:45PM 36.3861 -93.1250 213° Southwest 456 525 34,000  Level Kansas City Center
07:45PM 36.3378 -93.1653 214° Southwest 466 536 34,000  Level Memphis Center
07:46PM 36.2314 -93.2489 212° Southwest 461 531 34,000  Level Memphis Center
07:47PM 36.1253 -93.3353 213° Southwest 461 531 34,000  Level Memphis Center
07:48PM 36.0169 -93.4183 212° Southwest 461 531 34,000  Level Memphis Center
07:49PM 35.9106 -93.5042 213° Southwest 461 531 34,000  Level Memphis Center
07:50PM 35.8019 -93.5872 212° Southwest 461 531 34,000  Level Memphis Center
07:51PM 35.6933 -93.6725 213° Southwest 461 531 34,000  Level Memphis Center
07:52PM 35.5975 -93.7478 213° Southwest 468 539 34,000  Level Memphis Center
07:53PM 35.4911 -93.8300 212° Southwest 463 533 34,000  Level Memphis Center
07:54PM 35.3844 -93.9147 213° Southwest 463 533 34,000  Level Memphis Center
07:55PM 35.2736 -93.9964 211° Southwest 463 533 34,000  Level Memphis Center
07:56PM 35.1667 -94.0783 212° Southwest 463 533 34,000  Level Memphis Center
07:58PM 34.9575 -94.2444 213° Southwest 455 524 34,000  Level Fort Worth Center
08:00PM 34.8211 -94.3377 209° Southwest  Level FlightAware Approximate
08:03PM 34.4247 -94.6492 212° Southwest 450 518 34,000  Level Fort Worth Center
08:04PM 34.3200 -94.7281 212° Southwest 450 518 34,000  Level Fort Worth Center
08:05PM 34.2111 -94.8067 211° Southwest 455 524 34,000  Level Fort Worth Center
08:06PM 34.1042 -94.8903 213° Southwest 455 524 34,000  Level Fort Worth Center
08:07PM 34.1338 -94.8373 212° Southwest  Level FlightAware Approximate
08:07PM 33.9972 -94.9708 212° Southwest 455 524 34,000  Level Fort Worth Center
08:08PM 34.0366 -94.9103 212° Southwest  Level FlightAware Approximate
08:08PM 33.8925 -95.0489 212° Southwest 455 524 34,000  Level Fort Worth Center
08:09PM 33.7833 -95.1269 211° Southwest 455 524 34,000  Level Fort Worth Center
08:10PM 33.6781 -95.2044 211° Southwest 455 524 34,000  Level Fort Worth Center
08:11PM 33.5689 -95.2819 211° Southwest 455 524 34,000  Level Fort Worth Center
08:12PM 33.4639 -95.3617 212° Southwest 455 524 34,000  Level Fort Worth Center
08:13PM 33.3544 -95.4414 211° Southwest 455 524 34,000  Level Fort Worth Center
08:14PM 33.2514 -95.5231 214° Southwest 455 524 34,000  Level Fort Worth Center
08:15PM 33.1586 -95.5994 215° Southwest 455 524 34,000  Level Fort Worth Center
08:16PM 33.0492 -95.6933 216° Southwest 455 524 34,000  Level Fort Worth Center
08:17PM 32.9481 -95.7769 215° Southwest 455 524 34,000  Level Fort Worth Center
08:18PM 32.8469 -95.8656 216° Southwest 455 524 34,000  Level Fort Worth Center
08:19PM 32.7433 -95.9489 214° Southwest 450 518 34,000  Level Fort Worth Center
08:20PM 32.6422 -96.0342 215° Southwest 445 512 34,000  Level Fort Worth Center
08:21PM 32.5408 -96.1197 215° Southwest 445 512 34,000  Level Fort Worth Center
08:22PM 32.4414 -96.2022 215° Southwest 445 512 34,000  Level Fort Worth Center
08:23PM 32.3378 -96.2872 215° Southwest 450 518 34,000  Level Fort Worth Center
08:24PM 32.2361 -96.3719 215° Southwest 450 518 34,000 -360 Level Fort Worth Center
08:25PM 32.1344 -96.4567 215° Southwest 450 518 33,300 -720 Descending Fort Worth Center
08:27PM 32.0012 -96.5541 215° Southwest  Level FlightAware Approximate
08:27PM 31.9333 -96.6250 215° Southwest 444 511 32,000  Level Fort Worth Center
08:28PM 31.8272 -96.7117 215° Southwest 450 518 31,100 -1,080 Descending Fort Worth Center
08:29PM 31.7761 -96.7511 213° Southwest 457 526 30,400 -1,560 Descending Houston Center
08:30PM 31.6689 -96.8378 215° Southwest 463 533 28,700 -1,800 Descending Houston Center
08:31PM 31.5606 -96.9269 215° Southwest 469 540 26,700 -2,100 Descending Houston Center
08:33PM 31.3450 -97.1006 215° Southwest 461 531 22,400 -2,340 Descending Houston Center
08:34PM 31.2275 -97.1939 214° Southwest 436 502 19,600 -2,520 Descending Houston Center
08:35PM 31.1206 -97.2444 202° Southwest 412 474 17,300 -2,160 Descending Houston Center
08:36PM 31.0125 -97.2861 198° South 408 470 15,200 -1,860 Descending Houston Center
08:37PM 30.9117 -97.3253 198° South 400 460 13,500 -1,080 Descending Houston Center
08:38PM 30.8094 -97.3647 198° South 389 448 13,000 -780 Descending Houston Center
08:39PM 30.7092 -97.4469 215° Southwest 378 435 11,900 -1,320 Descending Houston Center
08:40PM 30.6306 -97.4981 209° Southwest 323 372 10,300 -1,680 Descending Houston Center
08:41PM 30.5597 -97.5458 210° Southwest 299 344 8,500 -1,920 Descending Houston Center
08:42PM 30.4897 -97.5931 210° Southwest 290 334 6,400 -1,800 Descending Houston Center
08:43PM 30.4208 -97.6381 209° Southwest 285 328 4,800 -1,440 Descending Houston Center
08:44PM 30.3608 -97.6708 205° Southwest 250 288 3,500 -1,260 Descending Houston Center